Time;durP1;ratioP1;P1;durP2;ratioP2;P2;SDS_P1;SDS_P2;PMS_P1;PMS_P2;Temp;Humidity;BMP_temperature;BMP_pressure;BME280_temperature;BME280_humidity;BME280_pressure;Samples;Min_cycle;Max_cycle;Signal;HPM_P1;HPM_P2
2021/11/24 00:00:22;;;;;;;0.10;0.10;;;6.20;99.90;;;;;;5038035;28;20452;-82
2021/11/24 00:02:49;;;;;;;0.10;0.10;;;6.10;99.90;;;;;;5071260;28;20076;-82
2021/11/24 00:05:16;;;;;;;0.10;0.10;;;6.20;99.90;;;;;;5022076;28;20515;-83
2021/11/24 00:07:43;;;;;;;0.10;0.10;;;6.20;99.90;;;;;;5038412;28;20489;-83
2021/11/24 00:10:12;;;;;;;0.10;0.10;;;6.50;99.90;;;;;;5054042;28;20146;-83
2021/11/24 00:12:40;;;;;;;0.10;0.10;;;6.20;99.90;;;;;;5071455;28;20083;-84
2021/11/24 00:15:08;;;;;;;0.10;0.10;;;6.20;99.90;;;;;;5070779;28;20049;-81
2021/11/24 00:17:35;;;;;;;0.10;0.10;;;6.20;99.90;;;;;;5038552;28;20052;-83
2021/11/24 00:20:03;;;;;;;0.05;0.05;;;6.20;99.90;;;;;;5038242;28;20041;-83
2021/11/24 00:22:30;;;;;;;0.10;0.10;;;6.20;99.90;;;;;;5053935;28;20119;-82
2021/11/24 00:24:57;;;;;;;0.08;0.08;;;6.30;99.90;;;;;;5071530;28;20080;-84
2021/11/24 00:27:24;;;;;;;0.08;0.08;;;6.30;99.90;;;;;;5053908;28;20458;-83
2021/11/24 00:29:53;;;;;;;0.10;0.10;;;6.30;99.90;;;;;;5070443;28;20041;-84
2021/11/24 00:32:21;;;;;;;0.20;0.20;;;6.30;99.90;;;;;;5053663;28;20087;-83
2021/11/24 00:34:48;;;;;;;0.10;0.10;;;6.30;99.90;;;;;;5070287;28;20124;-83
2021/11/24 00:37:15;;;;;;;0.10;0.10;;;6.30;99.90;;;;;;5043473;28;20120;-83
2021/11/24 00:39:42;;;;;;;0.10;0.10;;;6.30;99.90;;;;;;5045012;28;20433;-81
2021/11/24 00:42:09;;;;;;;0.10;0.10;;;6.30;99.90;;;;;;5054031;28;20083;-84
2021/11/24 00:44:35;;;;;;;0.10;0.10;;;6.30;99.90;;;;;;5070706;28;20060;-84
2021/11/24 00:47:03;;;;;;;0.10;0.10;;;6.40;99.90;;;;;;5070376;28;20123;-83
2021/11/24 00:49:30;;;;;;;0.10;0.10;;;6.30;99.90;;;;;;5069762;28;20053;-83
2021/11/24 00:51:57;;;;;;;0.10;0.10;;;6.40;99.90;;;;;;5054067;28;20041;-83
2021/11/24 00:54:24;;;;;;;0.10;0.10;;;6.30;99.90;;;;;;5053699;28;20116;-82
2021/11/24 00:56:50;;;;;;;0.10;0.10;;;6.50;99.90;;;;;;5053501;28;20037;-81
2021/11/24 00:59:17;;;;;;;0.10;0.10;;;6.30;99.90;;;;;;5053214;28;20037;-81
2021/11/24 01:01:44;;;;;;;0.10;0.10;;;6.40;99.90;;;;;;5053776;28;20041;-82
2021/11/24 01:04:10;;;;;;;0.10;0.10;;;6.50;99.90;;;;;;5053380;28;20036;-82
2021/11/24 01:06:37;;;;;;;0.10;0.10;;;6.40;99.90;;;;;;5053085;28;20044;-83
2021/11/24 01:09:04;;;;;;;0.10;0.10;;;6.50;99.90;;;;;;5053930;28;20150;-84
2021/11/24 01:11:31;;;;;;;0.08;0.08;;;6.30;99.90;;;;;;5052215;28;20476;-82
2021/11/24 01:13:58;;;;;;;0.10;0.10;;;6.30;99.90;;;;;;5053912;28;20080;-82
2021/11/24 01:16:24;;;;;;;0.10;0.10;;;6.30;99.90;;;;;;5053318;28;20079;-82
2021/11/24 01:18:51;;;;;;;0.05;0.05;;;6.30;99.90;;;;;;5053025;28;20076;-81
2021/11/24 01:21:18;;;;;;;0.10;0.10;;;6.30;99.90;;;;;;5036645;28;20048;-81
2021/11/24 01:23:46;;;;;;;0.10;0.10;;;6.30;99.90;;;;;;5053053;28;20104;-83
2021/11/24 01:26:14;;;;;;;0.10;0.10;;;6.30;99.90;;;;;;5053372;28;20040;-81
2021/11/24 01:28:41;;;;;;;0.00;0.00;;;6.30;99.90;;;;;;5052852;28;20409;-82
2021/11/24 01:31:07;;;;;;;0.10;0.10;;;6.30;99.90;;;;;;5069211;28;20033;-82
2021/11/24 01:33:34;;;;;;;0.10;0.10;;;6.30;99.90;;;;;;5069312;28;20045;-82
2021/11/24 01:36:02;;;;;;;0.10;0.10;;;6.60;99.90;;;;;;5053023;28;20048;-83
2021/11/24 01:38:28;;;;;;;0.10;0.10;;;6.30;99.90;;;;;;5069369;28;20095;-82
2021/11/24 01:40:55;;;;;;;0.10;0.10;;;6.40;99.90;;;;;;5053421;28;20041;-82
2021/11/24 01:43:22;;;;;;;0.10;0.10;;;6.30;99.90;;;;;;5052923;28;20037;-82
2021/11/24 01:45:49;;;;;;;0.03;0.03;;;6.40;99.90;;;;;;5053390;28;20512;-82
2021/11/24 01:48:16;;;;;;;0.10;0.10;;;6.40;99.90;;;;;;5069476;28;20451;-82
2021/11/24 01:50:43;;;;;;;0.10;0.10;;;6.60;99.90;;;;;;5052741;28;20114;-83
2021/11/24 01:53:10;;;;;;;0.10;0.10;;;6.40;99.90;;;;;;5053517;28;20040;-83
2021/11/24 01:55:36;;;;;;;0.10;0.10;;;6.40;99.90;;;;;;5052706;28;20099;-82
2021/11/24 01:58:04;;;;;;;0.10;0.10;;;6.40;99.90;;;;;;5052981;28;20025;-83
2021/11/24 02:00:32;;;;;;;0.00;0.00;;;6.70;99.90;;;;;;5052489;28;20489;-83
2021/11/24 02:03:02;;;;;;;0.10;0.10;;;6.40;99.90;;;;;;5069243;28;20401;-82
2021/11/24 02:05:29;;;;;;;0.03;0.03;;;6.30;99.90;;;;;;5068667;28;20127;-82
2021/11/24 02:07:56;;;;;;;0.10;0.10;;;6.80;99.90;;;;;;5052930;28;20048;-82
2021/11/24 02:10:23;;;;;;;0.10;0.10;;;6.30;99.90;;;;;;5036220;28;20136;-82
2021/11/24 02:12:51;;;;;;;0.00;0.00;;;6.30;99.90;;;;;;5052455;28;20033;-84
2021/11/24 02:15:19;;;;;;;0.10;0.10;;;6.30;99.90;;;;;;5069250;28;20497;-84
2021/11/24 02:17:46;;;;;;;0.10;0.10;;;6.20;99.90;;;;;;5068973;28;20448;-82
2021/11/24 02:20:18;;;;;;;0.10;0.10;;;6.20;99.90;;;;;;5052691;28;20041;-85
2021/11/24 02:22:44;;;;;;;0.10;0.10;;;6.20;99.90;;;;;;5039147;28;20056;-82
2021/11/24 02:25:11;;;;;;;0.08;0.08;;;6.20;99.90;;;;;;5072621;28;20041;-84
2021/11/24 02:27:38;;;;;;;0.10;0.10;;;6.30;99.90;;;;;;5072530;28;20067;-84
2021/11/24 02:30:06;;;;;;;0.10;0.10;;;6.30;99.90;;;;;;5040206;28;20041;-82
2021/11/24 02:32:32;;;;;;;0.10;0.10;;;6.20;99.90;;;;;;5039763;28;20086;-82
2021/11/24 02:34:59;;;;;;;0.10;0.10;;;6.20;99.90;;;;;;5072922;28;20037;-84
2021/11/24 02:37:26;;;;;;;0.10;0.10;;;6.20;99.90;;;;;;5072739;28;20486;-81
2021/11/24 02:39:53;;;;;;;0.10;0.10;;;6.20;99.90;;;;;;5056440;28;20394;-84
2021/11/24 02:42:19;;;;;;;0.10;0.10;;;6.20;99.90;;;;;;5040182;28;20045;-82
2021/11/24 02:44:46;;;;;;;0.10;0.10;;;6.20;99.90;;;;;;5039762;28;20578;-84
2021/11/24 02:47:14;;;;;;;0.10;0.10;;;6.20;99.90;;;;;;5039675;28;20037;-82
2021/11/24 02:49:46;;;;;;;0.10;0.10;;;6.20;99.90;;;;;;5055595;28;20049;-84
2021/11/24 02:52:14;;;;;;;0.10;0.10;;;6.20;99.90;;;;;;5072276;28;20494;-82
2021/11/24 02:54:48;;;;;;;0.10;0.10;;;6.20;99.90;;;;;;5055684;28;20044;-82
2021/11/24 02:57:14;;;;;;;0.40;0.40;;;6.40;99.90;;;;;;5072633;28;20048;-84
2021/11/24 02:59:41;;;;;;;0.05;0.05;;;6.20;99.90;;;;;;5072238;28;20055;-82
2021/11/24 03:02:08;;;;;;;0.10;0.10;;;6.20;99.90;;;;;;5072058;28;20489;-84
2021/11/24 03:04:35;;;;;;;0.10;0.10;;;6.20;99.90;;;;;;5039130;28;20103;-83
2021/11/24 03:07:02;;;;;;;0.10;0.10;;;6.20;99.90;;;;;;5039465;28;20056;-82
2021/11/24 03:09:29;;;;;;;0.10;0.10;;;6.20;99.90;;;;;;5039110;28;20033;-83
2021/11/24 03:11:56;;;;;;;0.10;0.10;;;6.20;99.90;;;;;;5055388;28;20091;-84
2021/11/24 03:14:23;;;;;;;0.10;0.10;;;6.20;99.90;;;;;;5039715;28;20037;-83
2021/11/24 03:16:50;;;;;;;0.08;0.08;;;6.30;99.90;;;;;;5039383;28;20486;-83
2021/11/24 03:19:17;;;;;;;0.10;0.10;;;6.20;99.90;;;;;;5055996;28;20475;-82
2021/11/24 03:21:43;;;;;;;0.15;0.15;;;6.20;99.90;;;;;;5038628;28;20410;-84
2021/11/24 03:24:10;;;;;;;0.10;0.10;;;6.30;99.90;;;;;;5038947;28;20046;-84
2021/11/24 03:26:37;;;;;;;0.10;0.10;;;6.50;99.90;;;;;;5038625;28;20105;-82
2021/11/24 03:29:05;;;;;;;0.00;0.00;;;6.30;99.90;;;;;;5039261;28;20508;-82
2021/11/24 03:31:31;;;;;;;0.10;0.10;;;6.20;99.90;;;;;;5038853;28;20037;-82
2021/11/24 03:33:58;;;;;;;0.10;0.10;;;6.30;99.90;;;;;;5037717;28;20037;-82
2021/11/24 03:36:25;;;;;;;0.10;0.10;;;6.20;99.90;;;;;;5055122;28;20040;-83
2021/11/24 03:38:52;;;;;;;0.10;0.10;;;6.40;99.90;;;;;;5038191;28;20509;-82
2021/11/24 03:41:19;;;;;;;0.10;0.10;;;6.20;99.90;;;;;;5038324;28;20084;-82
2021/11/24 03:43:46;;;;;;;0.10;0.10;;;6.20;99.90;;;;;;5038262;28;20048;-82
2021/11/24 03:46:12;;;;;;;0.10;0.10;;;6.20;99.90;;;;;;5038898;28;20045;-84
2021/11/24 03:48:39;;;;;;;0.10;0.10;;;6.20;99.90;;;;;;5054622;28;20414;-82
2021/11/24 03:51:06;;;;;;;0.10;0.10;;;6.20;99.90;;;;;;5038696;28;20041;-84
2021/11/24 03:53:35;;;;;;;0.10;0.10;;;6.20;99.90;;;;;;5038880;28;20123;-84
2021/11/24 03:56:01;;;;;;;0.10;0.10;;;6.20;99.90;;;;;;5070868;28;20378;-84
2021/11/24 03:58:28;;;;;;;0.10;0.10;;;6.20;99.90;;;;;;5038518;28;20043;-84
2021/11/24 04:00:55;;;;;;;0.10;0.10;;;6.20;99.90;;;;;;5038088;28;20040;-84
2021/11/24 04:03:22;;;;;;;0.00;0.00;;;6.30;99.90;;;;;;5038484;28;20128;-83
2021/11/24 04:05:52;;;;;;;0.08;0.08;;;6.20;99.90;;;;;;5054562;28;20512;-84
2021/11/24 04:08:19;;;;;;;0.10;0.10;;;6.20;99.90;;;;;;5039182;28;20047;-81
2021/11/24 04:10:46;;;;;;;0.10;0.10;;;6.20;99.90;;;;;;5054382;28;20044;-82
2021/11/24 04:13:13;;;;;;;0.10;0.10;;;6.20;99.90;;;;;;5054715;28;20029;-82
2021/11/24 04:15:40;;;;;;;0.10;0.10;;;6.20;99.90;;;;;;5054061;28;20386;-82
2021/11/24 04:18:07;;;;;;;0.10;0.10;;;6.20;99.90;;;;;;5038124;28;20073;-82
2021/11/24 04:20:34;;;;;;;0.10;0.10;;;6.20;99.90;;;;;;5053912;28;20079;-84
2021/11/24 04:23:01;;;;;;;0.10;0.10;;;6.20;99.90;;;;;;5037729;28;20097;-83
2021/11/24 04:25:27;;;;;;;0.10;0.10;;;6.30;99.90;;;;;;5037935;28;20041;-84
2021/11/24 04:27:56;;;;;;;0.10;0.10;;;6.20;99.90;;;;;;5053749;28;20052;-82
2021/11/24 04:30:23;;;;;;;0.10;0.10;;;6.20;99.90;;;;;;5038441;28;20052;-83
2021/11/24 04:32:51;;;;;;;0.10;0.10;;;6.20;99.90;;;;;;5053932;28;20036;-82
2021/11/24 04:35:18;;;;;;;0.00;0.00;;;6.20;99.90;;;;;;5038310;28;20744;-82
2021/11/24 04:37:46;;;;;;;0.10;0.10;;;6.20;99.90;;;;;;5037597;28;20489;-83
2021/11/24 04:40:13;;;;;;;0.10;0.10;;;6.20;99.90;;;;;;5054462;28;20129;-84
2021/11/24 04:42:42;;;;;;;0.20;0.20;;;6.30;99.90;;;;;;5037820;28;20092;-82
2021/11/24 04:45:09;;;;;;;0.10;0.10;;;6.20;99.90;;;;;;5053329;28;20493;-84
2021/11/24 04:47:36;;;;;;;0.10;0.10;;;6.20;99.90;;;;;;5070012;28;20818;-82
2021/11/24 04:50:03;;;;;;;0.00;0.00;;;6.20;99.90;;;;;;5053582;28;20075;-84
2021/11/24 04:52:30;;;;;;;0.10;0.10;;;6.20;99.90;;;;;;5054216;28;20032;-83
2021/11/24 04:54:57;;;;;;;0.10;0.10;;;6.20;99.90;;;;;;5036880;28;20487;-82
2021/11/24 04:57:23;;;;;;;0.10;0.10;;;6.20;99.90;;;;;;5037627;28;20037;-84
2021/11/24 04:59:50;;;;;;;0.10;0.10;;;6.20;99.90;;;;;;5037180;28;20037;-82
2021/11/24 05:02:17;;;;;;;0.10;0.10;;;6.20;99.90;;;;;;5053950;28;20068;-82
2021/11/24 05:04:44;;;;;;;0.10;0.10;;;6.20;99.90;;;;;;5037350;28;20049;-82
2021/11/24 05:07:11;;;;;;;0.10;0.10;;;6.20;99.90;;;;;;5037243;28;20079;-83
2021/11/24 05:09:38;;;;;;;0.10;0.10;;;6.20;99.90;;;;;;5037423;28;20072;-83
2021/11/24 05:12:05;;;;;;;0.08;0.08;;;6.20;99.90;;;;;;5053139;28;20041;-83
2021/11/24 05:14:36;;;;;;;0.10;0.10;;;6.20;99.90;;;;;;5053656;28;20054;-84
2021/11/24 05:17:05;;;;;;;0.10;0.10;;;6.20;99.90;;;;;;5038074;28;20125;-82
2021/11/24 05:19:35;;;;;;;0.10;0.10;;;6.20;99.90;;;;;;5054116;28;20123;-82
2021/11/24 05:22:03;;;;;;;0.10;0.10;;;6.20;99.90;;;;;;5052951;28;20048;-82
2021/11/24 05:24:30;;;;;;;0.10;0.10;;;6.20;99.90;;;;;;5069624;28;20041;-82
2021/11/24 05:26:57;;;;;;;0.10;0.10;;;6.20;99.90;;;;;;5052837;28;20044;-82
2021/11/24 05:29:24;;;;;;;0.10;0.10;;;6.20;99.90;;;;;;5053420;28;20041;-84
2021/11/24 05:31:50;;;;;;;0.10;0.10;;;6.10;99.90;;;;;;5036372;28;20045;-82
2021/11/24 05:34:17;;;;;;;0.10;0.10;;;6.20;99.90;;;;;;5036862;28;20041;-83
2021/11/24 05:36:44;;;;;;;0.10;0.10;;;6.20;99.90;;;;;;5036920;28;20048;-84
2021/11/24 05:39:11;;;;;;;0.10;0.10;;;6.20;99.90;;;;;;5053041;28;20044;-84
2021/11/24 05:41:41;;;;;;;0.10;0.10;;;6.20;99.90;;;;;;5053276;28;20041;-83
2021/11/24 05:44:33;;;;;;;0.20;0.20;;;6.40;99.90;;;;;;5052927;28;20040;-84
2021/11/24 05:47:09;;;;;;;0.10;0.10;;;6.50;99.90;;;;;;5052758;28;20124;-82
2021/11/24 05:49:37;;;;;;;0.10;0.10;;;6.10;99.90;;;;;;5069358;28;20061;-82
2021/11/24 05:52:05;;;;;;;0.10;0.10;;;6.20;99.90;;;;;;5054550;28;20075;-83
2021/11/24 05:54:32;;;;;;;0.10;0.10;;;6.20;99.90;;;;;;5054367;28;20132;-82
2021/11/24 05:56:58;;;;;;;0.10;0.10;;;6.20;99.90;;;;;;5037807;28;20707;-82
2021/11/24 05:59:25;;;;;;;0.10;0.10;;;6.50;99.90;;;;;;5027565;28;20037;-84
2021/11/24 06:01:52;;;;;;;0.10;0.10;;;6.10;99.90;;;;;;5057531;28;20519;-82
2021/11/24 06:04:18;;;;;;;0.10;0.10;;;6.20;99.90;;;;;;5039707;28;20040;-82
2021/11/24 06:06:46;;;;;;;0.10;0.10;;;6.30;99.90;;;;;;5040340;28;20090;-83
2021/11/24 06:09:12;;;;;;;0.10;0.10;;;6.20;99.90;;;;;;5057066;28;20045;-83
2021/11/24 06:11:39;;;;;;;0.00;0.00;;;6.20;99.90;;;;;;5040181;28;20551;-82
2021/11/24 06:14:06;;;;;;;0.10;0.10;;;6.20;99.90;;;;;;5040359;28;20045;-82
2021/11/24 06:16:32;;;;;;;0.10;0.10;;;6.20;99.90;;;;;;5040251;28;20037;-84
2021/11/24 06:18:59;;;;;;;0.10;0.10;;;6.20;99.90;;;;;;5039895;28;20094;-82
2021/11/24 06:21:26;;;;;;;0.10;0.10;;;6.20;99.90;;;;;;5040221;28;20041;-82
2021/11/24 06:23:52;;;;;;;0.10;0.10;;;6.20;99.90;;;;;;5056326;28;20131;-84
2021/11/24 06:26:21;;;;;;;0.10;0.10;;;6.10;99.90;;;;;;5040009;28;20045;-82
2021/11/24 06:28:48;;;;;;;0.10;0.10;;;6.20;99.90;;;;;;5040557;28;20044;-84
2021/11/24 06:31:16;;;;;;;0.10;0.10;;;6.10;99.90;;;;;;5040016;28;20509;-83
2021/11/24 06:33:43;;;;;;;0.10;0.10;;;6.10;99.90;;;;;;5040134;28;20387;-83
2021/11/24 06:36:10;;;;;;;0.10;0.10;;;6.10;99.90;;;;;;5055988;28;20397;-83
2021/11/24 06:38:37;;;;;;;0.10;0.10;;;6.10;99.90;;;;;;5056587;28;20033;-84
2021/11/24 06:41:04;;;;;;;0.10;0.10;;;6.10;99.90;;;;;;5055872;28;20111;-84
2021/11/24 06:43:31;;;;;;;0.10;0.10;;;6.10;99.90;;;;;;5055988;28;20040;-82
2021/11/24 06:45:58;;;;;;;0.10;0.10;;;6.10;99.90;;;;;;5055921;28;20044;-83
2021/11/24 06:48:24;;;;;;;0.10;0.10;;;6.30;99.90;;;;;;5055763;28;20502;-83
2021/11/24 06:50:51;;;;;;;0.10;0.10;;;6.10;99.90;;;;;;5058290;28;20052;-84
2021/11/24 06:53:18;;;;;;;0.10;0.10;;;6.10;99.90;;;;;;5040741;28;20053;-84
2021/11/24 06:55:44;;;;;;;0.10;0.10;;;6.10;99.90;;;;;;5039704;28;20040;-84
2021/11/24 06:58:12;;;;;;;0.10;0.10;;;6.10;99.90;;;;;;5039109;28;20090;-84
2021/11/24 07:00:39;;;;;;;0.10;0.10;;;6.40;99.90;;;;;;5039445;28;20045;-84
2021/11/24 07:03:06;;;;;;;0.10;0.10;;;6.10;99.90;;;;;;5039404;28;20123;-82
2021/11/24 07:05:32;;;;;;;0.10;0.10;;;6.10;99.90;;;;;;5039542;28;20045;-84
2021/11/24 07:07:59;;;;;;;0.10;0.10;;;6.10;99.90;;;;;;5055848;28;20041;-82
2021/11/24 07:10:26;;;;;;;0.10;0.10;;;6.10;99.90;;;;;;5055156;28;20041;-84
2021/11/24 07:12:53;;;;;;;0.10;0.10;;;6.40;99.90;;;;;;5038918;28;20037;-84
2021/11/24 07:15:20;;;;;;;0.10;0.10;;;6.20;99.90;;;;;;5054983;28;20072;-82
2021/11/24 07:17:46;;;;;;;0.10;0.10;;;6.20;99.90;;;;;;5039217;28;20075;-84
2021/11/24 07:20:13;;;;;;;0.08;0.08;;;6.10;99.90;;;;;;5038047;28;20048;-84
2021/11/24 07:22:40;;;;;;;0.10;0.10;;;6.20;99.90;;;;;;5025965;28;20063;-83
2021/11/24 07:25:08;;;;;;;0.10;0.10;;;6.10;99.90;;;;;;5031813;28;20037;-83
2021/11/24 07:27:36;;;;;;;0.10;0.10;;;6.10;99.90;;;;;;5022156;28;20091;-82
2021/11/24 07:30:04;;;;;;;0.10;0.10;;;6.10;99.90;;;;;;5026569;28;20417;-84
2021/11/24 07:32:31;;;;;;;0.10;0.10;;;6.10;99.90;;;;;;5034946;28;20170;-82
2021/11/24 07:35:00;;;;;;;0.10;0.10;;;6.20;99.90;;;;;;5016719;28;20040;-83
2021/11/24 07:37:27;;;;;;;0.10;0.10;;;6.20;99.90;;;;;;5067744;28;20038;-83
2021/11/24 07:39:53;;;;;;;0.10;0.10;;;6.20;99.90;;;;;;5037757;28;20044;-82
2021/11/24 07:42:21;;;;;;;0.10;0.10;;;6.30;99.90;;;;;;5042433;28;20120;-84
2021/11/24 07:44:47;;;;;;;0.10;0.10;;;6.20;99.90;;;;;;5056932;28;20505;-82
2021/11/24 07:47:14;;;;;;;0.10;0.10;;;6.20;99.90;;;;;;5054789;28;20099;-83
2021/11/24 07:49:40;;;;;;;0.10;0.10;;;6.20;99.90;;;;;;5054662;28;20191;-83
2021/11/24 07:52:07;;;;;;;0.10;0.10;;;6.20;99.90;;;;;;5038508;28;20052;-84
2021/11/24 07:54:34;;;;;;;0.10;0.10;;;6.20;99.90;;;;;;5054580;28;20045;-83
2021/11/24 07:57:01;;;;;;;0.10;0.10;;;6.20;99.90;;;;;;5071113;28;20120;-83
2021/11/24 07:59:27;;;;;;;0.10;0.10;;;6.20;99.90;;;;;;5054285;28;20041;-85
2021/11/24 08:01:54;;;;;;;0.10;0.10;;;6.20;99.90;;;;;;5054729;28;20044;-83
2021/11/24 08:04:21;;;;;;;0.00;0.00;;;6.20;99.90;;;;;;5054389;28;20390;-84
2021/11/24 08:06:47;;;;;;;0.10;0.10;;;6.20;99.90;;;;;;5038604;28;20044;-83
2021/11/24 08:09:14;;;;;;;0.05;0.05;;;6.20;99.90;;;;;;5032347;28;20518;-83
2021/11/24 08:11:41;;;;;;;0.10;0.10;;;6.40;99.90;;;;;;5038112;28;20036;-85
2021/11/24 08:14:08;;;;;;;0.10;0.10;;;6.30;99.90;;;;;;5054289;28;20064;-84
2021/11/24 08:16:34;;;;;;;0.10;0.10;;;6.30;99.90;;;;;;5050366;28;20033;-84
2021/11/24 08:19:01;;;;;;;0.10;0.10;;;6.40;99.90;;;;;;5050364;28;20041;-86
2021/11/24 08:21:28;;;;;;;0.10;0.10;;;6.30;99.90;;;;;;5034812;28;20055;-84
2021/11/24 08:23:55;;;;;;;0.10;0.10;;;6.40;99.90;;;;;;5034568;28;20056;-87
2021/11/24 08:26:21;;;;;;;0.10;0.10;;;6.30;99.90;;;;;;5035016;28;20041;-86
2021/11/24 08:28:48;;;;;;;0.10;0.10;;;6.40;99.90;;;;;;5034949;28;20041;-87
2021/11/24 08:31:15;;;;;;;0.10;0.10;;;6.40;99.90;;;;;;5034947;28;20052;-86
2021/11/24 08:33:41;;;;;;;0.10;0.10;;;6.40;99.90;;;;;;5051192;28;20042;-85
2021/11/24 08:36:11;;;;;;;0.10;0.10;;;6.50;99.90;;;;;;5051718;28;20041;-86
2021/11/24 08:38:42;;;;;;;0.10;0.10;;;6.40;99.90;;;;;;5033793;28;20048;-86
2021/11/24 08:41:11;;;;;;;0.10;0.10;;;6.40;99.90;;;;;;5051486;28;20051;-85
2021/11/24 08:43:39;;;;;;;0.10;0.10;;;6.50;99.90;;;;;;5034807;28;20453;-86
2021/11/24 08:46:06;;;;;;;0.10;0.10;;;6.70;99.90;;;;;;5050921;28;20080;-86
2021/11/24 08:48:34;;;;;;;0.00;0.00;;;6.50;99.90;;;;;;5050378;28;20061;-87
2021/11/24 08:51:01;;;;;;;0.10;0.10;;;6.50;99.90;;;;;;5050918;28;20057;-86
2021/11/24 08:53:28;;;;;;;0.10;0.10;;;6.60;99.90;;;;;;5033912;28;20099;-85
2021/11/24 08:55:55;;;;;;;0.10;0.10;;;6.60;99.90;;;;;;5034721;28;20034;-86
2021/11/24 08:58:21;;;;;;;0.10;0.10;;;6.60;99.90;;;;;;5034126;28;20038;-86
2021/11/24 09:00:48;;;;;;;0.10;0.10;;;6.60;99.90;;;;;;5034701;28;20037;-86
2021/11/24 09:03:15;;;;;;;0.10;0.10;;;6.60;99.90;;;;;;5051035;28;20107;-86
2021/11/24 09:05:43;;;;;;;0.10;0.10;;;6.70;99.90;;;;;;5033893;28;20046;-86
2021/11/24 09:08:09;;;;;;;0.00;0.00;;;6.80;99.90;;;;;;5050708;28;20056;-87
2021/11/24 09:10:38;;;;;;;0.10;0.10;;;6.70;99.90;;;;;;5049865;28;20045;-86
2021/11/24 09:13:05;;;;;;;0.10;0.10;;;6.80;99.90;;;;;;5034410;28;20045;-86
2021/11/24 09:15:32;;;;;;;0.13;0.13;;;6.70;99.90;;;;;;5050234;28;20043;-86
2021/11/24 09:17:59;;;;;;;0.10;0.10;;;6.70;99.90;;;;;;5034322;28;20072;-86
2021/11/24 09:20:25;;;;;;;0.10;0.10;;;6.80;99.90;;;;;;5033549;28;20536;-86
2021/11/24 09:22:53;;;;;;;0.10;0.10;;;6.80;99.90;;;;;;5034110;28;20042;-86
2021/11/24 09:25:24;;;;;;;0.10;0.10;;;6.70;99.90;;;;;;5049900;28;20041;-86
2021/11/24 09:30:20;;;;;;;0.10;0.10;;;6.80;99.90;;;;;;5049971;28;20046;-86
2021/11/24 09:32:47;;;;;;;0.10;0.10;;;6.80;99.90;;;;;;5033310;28;20080;-86
2021/11/24 09:35:15;;;;;;;0.10;0.10;;;6.90;99.90;;;;;;5034246;28;20073;-86
2021/11/24 09:37:42;;;;;;;0.10;0.10;;;6.90;99.90;;;;;;5050141;28;20124;-86
2021/11/24 09:40:10;;;;;;;0.10;0.10;;;6.90;99.90;;;;;;5050093;28;20140;-86
2021/11/24 09:42:41;;;;;;;0.10;0.10;;;6.90;99.90;;;;;;5049842;28;20033;-86
2021/11/24 09:45:09;;;;;;;0.10;0.10;;;6.90;99.90;;;;;;5050461;28;20037;-86
2021/11/24 09:47:37;;;;;;;0.10;0.10;;;6.90;99.90;;;;;;5033521;28;20129;-85
2021/11/24 09:50:06;;;;;;;0.10;0.10;;;6.90;99.90;;;;;;5046598;28;20475;-86
2021/11/24 09:52:34;;;;;;;0.10;0.10;;;7.00;99.90;;;;;;5046170;28;20038;-86
2021/11/24 09:55:01;;;;;;;0.10;0.10;;;7.00;99.90;;;;;;5046606;28;20052;-86
2021/11/24 09:57:28;;;;;;;0.10;0.10;;;7.10;99.90;;;;;;5046664;28;20034;-86
2021/11/24 09:59:55;;;;;;;0.05;0.05;;;7.00;99.90;;;;;;5046639;28;20044;-85
2021/11/24 10:02:22;;;;;;;0.10;0.10;;;7.00;99.90;;;;;;5046784;28;20092;-86
2021/11/24 10:04:50;;;;;;;0.10;0.10;;;7.00;99.90;;;;;;5029848;28;20104;-86
2021/11/24 10:07:19;;;;;;;0.10;0.10;;;7.00;99.90;;;;;;5046508;28;20081;-86
2021/11/24 10:09:46;;;;;;;0.10;0.10;;;7.00;99.90;;;;;;5045901;28;20054;-87
2021/11/24 10:12:13;;;;;;;0.20;0.10;;;7.10;99.90;;;;;;5046115;28;20045;-87
2021/11/24 10:14:41;;;;;;;0.10;0.10;;;7.20;99.90;;;;;;5062444;28;20044;-87
2021/11/24 10:17:14;;;;;;;0.10;0.10;;;7.10;99.90;;;;;;5046825;28;20510;-86
2021/11/24 10:20:08;;;;;;;0.10;0.10;;;7.40;99.90;;;;;;5045720;28;20069;-86
2021/11/24 10:22:41;;;;;;;0.00;0.00;;;7.10;99.90;;;;;;5046216;28;20045;-86
2021/11/24 10:25:10;;;;;;;0.00;0.00;;;7.10;99.90;;;;;;5062940;28;20038;-85
2021/11/24 10:27:41;;;;;;;0.10;0.10;;;7.10;99.90;;;;;;5045916;28;20038;-86
2021/11/24 10:30:08;;;;;;;0.10;0.10;;;7.40;99.90;;;;;;5046425;28;20123;-87
2021/11/24 10:32:36;;;;;;;0.10;0.10;;;7.10;99.90;;;;;;5029077;28;20050;-86
2021/11/24 10:35:04;;;;;;;0.10;0.10;;;7.10;99.90;;;;;;5046255;28;20038;-86
2021/11/24 10:37:31;;;;;;;0.00;0.00;;;7.10;99.90;;;;;;5045800;28;20479;-86
2021/11/24 10:40:07;;;;;;;0.00;0.00;;;7.10;99.90;;;;;;5045943;28;20121;-86
2021/11/24 10:42:39;;;;;;;0.00;0.00;;;7.10;99.90;;;;;;5046635;28;20407;-86
2021/11/24 10:45:11;;;;;;;0.10;0.10;;;7.10;99.90;;;;;;5050029;28;20049;-86
2021/11/24 10:47:56;;;;;;;0.05;0.05;;;7.20;99.90;;;;;;5049567;28;20045;-87
2021/11/24 10:50:30;;;;;;;0.10;0.10;;;7.20;99.90;;;;;;5051558;28;20054;-86
2021/11/24 10:52:57;;;;;;;0.00;0.00;;;7.20;99.90;;;;;;5049533;28;20057;-86
2021/11/24 10:55:26;;;;;;;0.10;0.10;;;7.30;99.90;;;;;;5049380;28;20038;-86
2021/11/24 10:58:01;;;;;;;0.00;0.00;;;7.20;99.90;;;;;;5033051;28;20049;-86
2021/11/24 11:00:37;;;;;;;0.10;0.10;;;7.30;99.90;;;;;;5049621;28;20509;-86
2021/11/24 11:03:06;;;;;;;0.05;0.05;;;7.20;99.90;;;;;;5049793;28;20124;-86
2021/11/24 11:05:33;;;;;;;0.10;0.10;;;7.20;99.90;;;;;;5032755;28;20030;-86
2021/11/24 11:08:03;;;;;;;0.10;0.10;;;7.30;99.90;;;;;;5049086;28;20049;-87
2021/11/24 11:10:49;;;;;;;0.10;0.10;;;7.30;99.90;;;;;;5049023;28;20038;-86
2021/11/24 11:13:18;;;;;;;0.10;0.10;;;7.20;99.90;;;;;;5048974;28;20708;-86
2021/11/24 11:15:53;;;;;;;0.10;0.10;;;7.30;99.90;;;;;;5048884;28;20237;-87
2021/11/24 11:18:29;;;;;;;0.00;0.00;;;7.30;99.90;;;;;;5049249;28;20038;-86
2021/11/24 11:21:09;;;;;;;0.10;0.10;;;7.30;99.90;;;;;;5049289;28;20045;-86
2021/11/24 11:23:45;;;;;;;0.00;0.00;;;7.30;99.90;;;;;;5049223;28;20053;-86
2021/11/24 11:26:24;;;;;;;0.10;0.10;;;7.30;99.90;;;;;;5049146;28;20041;-86
2021/11/24 11:28:53;;;;;;;0.00;0.00;;;7.30;99.90;;;;;;5065179;28;20045;-86
2021/11/24 11:31:23;;;;;;;0.10;0.10;;;7.30;99.90;;;;;;5048699;28;20038;-87
2021/11/24 11:33:52;;;;;;;0.10;0.10;;;7.30;99.90;;;;;;5048682;28;20038;-86
2021/11/24 11:36:20;;;;;;;0.10;0.10;;;7.30;99.90;;;;;;5049107;28;20030;-86
2021/11/24 11:38:49;;;;;;;0.08;0.08;;;7.30;99.90;;;;;;5032141;28;20034;-86
2021/11/24 11:41:22;;;;;;;0.10;0.10;;;7.30;99.90;;;;;;5049020;28;20125;-86
2021/11/24 11:43:50;;;;;;;0.10;0.10;;;7.40;99.90;;;;;;5048053;28;20037;-85
2021/11/24 11:46:18;;;;;;;0.03;0.03;;;7.30;99.90;;;;;;5032105;28;20077;-86
2021/11/24 11:48:47;;;;;;;0.10;0.10;;;7.40;99.90;;;;;;5048180;28;20589;-85
2021/11/24 11:51:15;;;;;;;0.10;0.10;;;7.40;99.90;;;;;;5031643;28;20062;-85
2021/11/24 11:53:53;;;;;;;0.20;0.20;;;7.40;99.90;;;;;;5031568;28;20081;-87
2021/11/24 11:56:23;;;;;;;0.00;0.00;;;7.40;99.90;;;;;;5053699;28;20036;-85
2021/11/24 11:59:16;;;;;;;0.10;0.10;;;7.40;99.90;;;;;;5064541;28;20103;-85
2021/11/24 12:01:42;;;;;;;0.10;0.10;;;7.40;99.90;;;;;;5066014;28;20041;-84
2021/11/24 12:04:14;;;;;;;0.00;0.00;;;7.40;99.90;;;;;;5050711;28;20042;-84
2021/11/24 12:06:47;;;;;;;0.00;0.00;;;7.50;99.90;;;;;;5064784;28;20049;-85
2021/11/24 12:09:14;;;;;;;0.10;0.10;;;7.50;99.90;;;;;;5051671;28;20041;-85
2021/11/24 12:11:59;;;;;;;0.10;0.10;;;7.50;99.90;;;;;;5049930;28;20033;-85
2021/11/24 12:14:41;;;;;;;0.10;0.10;;;7.50;99.90;;;;;;5044580;28;20042;-85
2021/11/24 12:17:30;;;;;;;0.00;0.00;;;7.50;99.90;;;;;;5065208;28;20044;-84
2021/11/24 12:20:13;;;;;;;0.10;0.10;;;7.50;99.90;;;;;;5050347;28;20041;-85
2021/11/24 12:22:53;;;;;;;0.10;0.10;;;7.50;99.90;;;;;;5067145;28;20041;-85
2021/11/24 12:25:20;;;;;;;0.10;0.10;;;7.50;99.90;;;;;;5060978;28;20033;-83
2021/11/24 12:27:53;;;;;;;0.10;0.10;;;7.50;99.90;;;;;;5050336;28;20064;-84
2021/11/24 12:30:48;;;;;;;0.10;0.10;;;7.50;99.90;;;;;;5041968;28;20033;-83
2021/11/24 12:33:19;;;;;;;0.10;0.10;;;7.50;99.90;;;;;;5050540;28;20095;-84
2021/11/24 12:36:08;;;;;;;0.10;0.10;;;7.50;99.90;;;;;;5050619;28;20402;-85
2021/11/24 12:38:46;;;;;;;0.03;0.03;;;7.50;99.90;;;;;;5050511;28;20045;-84
2021/11/24 12:41:15;;;;;;;0.10;0.10;;;7.50;99.90;;;;;;5066708;28;20049;-85
2021/11/24 12:43:54;;;;;;;0.10;0.10;;;7.50;99.90;;;;;;5050115;28;20128;-85
2021/11/24 12:46:29;;;;;;;0.10;0.10;;;7.50;99.90;;;;;;5066764;28;20095;-83
2021/11/24 12:48:57;;;;;;;0.10;0.10;;;7.50;99.90;;;;;;5049760;28;20119;-84
2021/11/24 12:51:32;;;;;;;0.10;0.10;;;7.50;99.90;;;;;;5049862;28;20077;-84
2021/11/24 12:54:08;;;;;;;0.10;0.10;;;7.50;99.90;;;;;;5066096;28;20536;-85
2021/11/24 12:56:34;;;;;;;;;;;7.50;99.90;;;;;;5050828;28;20128;-85
2021/11/24 12:59:08;;;;;;;0.10;0.10;;;7.50;99.90;;;;;;5066800;28;20012;-85
2021/11/24 13:01:48;;;;;;;0.03;0.03;;;7.50;99.90;;;;;;5063920;28;20083;-85
2021/11/24 13:04:22;;;;;;;0.10;0.10;;;7.50;99.90;;;;;;5056905;28;20542;-85
2021/11/24 13:06:51;;;;;;;0.10;0.10;;;7.50;99.90;;;;;;5050768;28;20042;-85